Terminal Aerodrome Forecast
Issued by NWS

Home | Current Version | Previous Version | Graphics & Text | Print | Product List | Glossary On
Versions: 1 2 3 4 5 6 7 8 9 10 11 12 13 14 15 16 17 18
000
FTUS43 KMPX 021857 AAA
TAFAXN
TAF AMD
KAXN 021857Z 0219/0318 17013KT P6SM SCT250
     FM022100 16015G23KT P6SM FEW050 BKN100
     FM030300 16017KT P6SM BKN030
     FM030500 18017KT 2SM -SN BR OVC015
     FM030700 18012KT 1/2SM SN FZFG OVC005
     FM031500 32019G29KT 1/4SM SN BLSN OVC005=

USA.gov is the U.S. government's official web portal to all federal, state and local government web resources and services.